Time;durP1;ratioP1;P1;durP2;ratioP2;P2;SDS_P1;SDS_P2;PMS_P1;PMS_P2;Temp;Humidity;BMP_temperature;BMP_pressure;BME280_temperature;BME280_humidity;BME280_pressure;Samples;Min_cycle;Max_cycle;Signal;HPM_P1;HPM_P2
2021/03/20 00:00:33;;;;;;;15.80;11.30;;;1.80;99.90;;;;;;4859267;29;20914;-82
2021/03/20 00:03:05;;;;;;;15.27;9.90;;;1.90;99.90;;;;;;4860346;29;20517;-82
2021/03/20 00:05:45;;;;;;;;;;;;;;;;;;;;;
2021/03/20 00:10:54;;;;;;;14.27;9.57;;;1.90;99.90;;;;;;4860997;29;20533;-82
2021/03/20 00:13:36;;;;;;;22.80;11.70;;;1.70;99.90;;;;;;4863298;29;20468;-82
2021/03/20 00:16:06;;;;;;;18.17;12.20;;;1.60;99.90;;;;;;4863305;29;20471;-82
2021/03/20 00:18:40;;;;;;;17.00;10.90;;;1.70;99.90;;;;;;4863302;29;20464;-82
2021/03/20 00:21:17;;;;;;;18.07;10.90;;;1.60;99.90;;;;;;4863205;29;20491;-82
2021/03/20 00:23:44;;;;;;;14.60;10.30;;;1.50;99.90;;;;;;4863384;29;20468;-82
2021/03/20 00:26:27;;;;;;;17.10;11.27;;;1.30;99.90;;;;;;4861788;29;21115;-82
2021/03/20 00:28:54;;;;;;;20.47;11.40;;;1.30;99.90;;;;;;4863016;29;20523;-82
2021/03/20 00:31:42;;;;;;;19.67;13.77;;;1.10;99.90;;;;;;4863119;29;20520;-82
2021/03/20 00:34:22;;;;;;;17.77;13.33;;;1.10;99.90;;;;;;4863842;29;20439;-82
2021/03/20 00:36:55;;;;;;;21.17;15.50;;;0.70;99.90;;;;;;4862980;29;20810;-81
2021/03/20 00:39:21;;;;;;;25.30;18.20;;;0.70;99.90;;;;;;4862806;29;20469;-81
2021/03/20 00:41:48;;;;;;;21.03;14.90;;;0.50;99.90;;;;;;4861692;29;20524;-82
2021/03/20 00:44:28;;;;;;;;;;;;;;;;;;;;;
2021/03/20 00:46:54;;;;;;;22.13;14.95;;;0.90;99.90;;;;;;4852632;29;20965;-81
2021/03/20 00:49:21;;;;;;;22.63;17.17;;;1.00;99.90;;;;;;4862776;29;20274;-82
2021/03/20 00:51:58;;;;;;;;;;;;;;;;;;;;;
2021/03/20 00:54:47;;;;;;;26.37;21.17;;;0.70;99.90;;;;;;4862618;29;20961;-82
2021/03/20 00:57:13;;;;;;;29.90;27.00;;;0.50;99.90;;;;;;4862528;29;20548;-82
2021/03/20 00:59:41;;;;;;;30.15;27.48;;;0.50;99.90;;;;;;4862416;29;20495;-81
2021/03/20 01:02:09;;;;;;;30.23;27.52;;;0.50;99.90;;;;;;4862454;29;20196;-82
2021/03/20 01:04:40;;;;;;;29.27;26.47;;;0.40;99.90;;;;;;4862706;29;20260;-81
2021/03/20 01:07:06;;;;;;;39.00;35.70;;;0.40;99.90;;;;;;4862375;29;20465;-81
2021/03/20 01:09:38;;;;;;;43.23;39.87;;;0.50;99.90;;;;;;4861159;29;20499;-81
2021/03/20 01:12:13;;;;;;;55.23;51.47;;;0.50;99.90;;;;;;4862383;29;20500;-82
2021/03/20 01:14:53;;;;;;;61.13;57.33;;;0.40;99.90;;;;;;4862606;29;20474;-82
2021/03/20 01:17:26;;;;;;;58.30;54.33;;;0.70;99.90;;;;;;4861904;29;20460;-82
2021/03/20 01:20:00;;;;;;;58.60;54.30;;;0.60;99.90;;;;;;4862055;29;20985;-82
2021/03/20 01:22:26;;;;;;;52.13;48.33;;;0.70;99.90;;;;;;4862263;29;20196;-82
2021/03/20 01:24:53;;;;;;;48.23;44.70;;;0.80;99.90;;;;;;4860859;29;20476;-81
2021/03/20 01:27:29;;;;;;;46.13;42.80;;;0.80;99.90;;;;;;4861829;29;21020;-82
2021/03/20 01:30:23;;;;;;;37.90;35.03;;;0.80;99.90;;;;;;4862175;29;20475;-82
2021/03/20 01:32:51;;;;;;;41.63;38.63;;;0.70;99.90;;;;;;4856362;29;20508;-82
2021/03/20 01:35:20;;;;;;;42.40;38.90;;;0.80;99.90;;;;;;4861857;29;20468;-82
2021/03/20 01:37:47;;;;;;;40.73;37.40;;;0.90;99.90;;;;;;4861879;29;20525;-82
2021/03/20 01:40:17;;;;;;;36.47;32.97;;;1.00;99.90;;;;;;4860670;29;20554;-82
2021/03/20 01:43:11;;;;;;;33.13;30.03;;;0.90;99.90;;;;;;4861943;29;20196;-82
2021/03/20 01:45:42;;;;;;;30.73;28.10;;;1.00;99.90;;;;;;4857467;29;20524;-82
2021/03/20 01:48:18;;;;;;;23.47;20.93;;;1.20;99.90;;;;;;4861797;29;20473;-82
2021/03/20 01:50:52;;;;;;;21.77;19.47;;;1.10;99.90;;;;;;4861665;29;20526;-82
2021/03/20 01:53:36;;;;;;;19.77;17.67;;;1.30;99.90;;;;;;4861562;29;20979;-82
2021/03/20 01:56:05;;;;;;;23.20;19.30;;;1.20;99.90;;;;;;4860436;29;20471;-81
2021/03/20 01:58:57;;;;;;;16.20;14.27;;;1.20;99.90;;;;;;4861616;29;20460;-82
2021/03/20 02:01:31;;;;;;;19.50;15.57;;;1.20;99.90;;;;;;4856362;29;20516;-82
2021/03/20 02:04:04;;;;;;;18.73;14.50;;;1.40;99.90;;;;;;4861430;29;20509;-82
2021/03/20 02:06:35;;;;;;;20.13;17.10;;;1.30;99.90;;;;;;4861556;29;20484;-81
2021/03/20 02:09:10;;;;;;;28.40;19.80;;;1.10;99.90;;;;;;4861418;29;20975;-82
2021/03/20 02:11:43;;;;;;;21.50;18.07;;;1.10;99.90;;;;;;4860258;29;20555;-82
2021/03/20 02:14:26;;;;;;;19.63;16.33;;;1.10;99.90;;;;;;4861260;29;20470;-82
2021/03/20 02:17:01;;;;;;;18.97;13.27;;;1.20;99.90;;;;;;4861069;29;20264;-81
2021/03/20 02:20:16;;;;;;;22.43;14.80;;;1.30;99.90;;;;;;4861270;29;20540;-82
2021/03/20 02:23:17;;;;;;;19.40;14.13;;;1.30;99.90;;;;;;4861057;29;20551;-82
2021/03/20 02:26:41;;;;;;;20.60;15.83;;;1.20;99.90;;;;;;4854297;29;20556;-81
2021/03/20 02:29:52;;;;;;;15.00;9.83;;;0.90;99.90;;;;;;4832667;29;20471;-82
2021/03/20 02:32:32;;;;;;;18.30;13.07;;;1.00;99.90;;;;;;4825290;29;20456;-81
2021/03/20 02:35:08;;;;;;;20.53;14.80;;;0.90;99.90;;;;;;4861032;29;20464;-82
2021/03/20 02:38:08;;;;;;;18.73;14.97;;;0.70;99.90;;;;;;4860942;29;20471;-82
2021/03/20 02:40:44;;;;;;;21.57;16.03;;;0.70;99.90;;;;;;4859724;29;20564;-82
2021/03/20 02:43:20;;;;;;;29.85;27.35;;;0.50;99.90;;;;;;4860768;29;20515;-81
2021/03/20 02:45:55;;;;;;;29.57;27.00;;;0.20;99.90;;;;;;4860932;29;20226;-81
2021/03/20 02:48:29;;;;;;;30.27;27.33;;;0.20;99.90;;;;;;4860773;29;20464;-81
2021/03/20 02:51:04;;;;;;;32.78;29.95;;;0.20;99.90;;;;;;4860999;29;20465;-81
2021/03/20 02:53:37;;;;;;;37.03;34.17;;;0.10;99.90;;;;;;4860869;29;20215;-82
2021/03/20 02:56:11;;;;;;;39.80;36.80;;;0.10;99.90;;;;;;4859616;29;20207;-82
2021/03/20 02:58:44;;;;;;;48.25;44.95;;;-0.10;99.90;;;;;;4860611;29;20669;-82
2021/03/20 03:04:10;;;;;;;57.15;53.55;;;-0.30;99.90;;;;;;5270243;23;20573;-81
2021/03/20 03:06:49;;;;;;;66.25;62.13;;;-0.50;99.90;;;;;;4879066;29;20202;-81
2021/03/20 03:09:22;;;;;;;60.33;56.70;;;-0.50;99.90;;;;;;4879343;29;20211;-81
2021/03/20 03:11:54;;;;;;;48.67;44.67;;;-0.40;99.90;;;;;;4878031;29;20798;-81
2021/03/20 03:14:36;;;;;;;43.70;40.65;;;-0.30;99.90;;;;;;4879017;29;20675;-80
2021/03/20 03:17:21;;;;;;;;;;;;;;;;;;;;;
2021/03/20 03:19:55;;;;;;;25.58;23.58;;;-0.20;99.90;;;;;;4878588;29;20682;-81
2021/03/20 03:22:26;;;;;;;13.07;11.70;;;-0.20;99.90;;;;;;4878996;29;20216;-81
2021/03/20 03:24:57;;;;;;;16.83;12.60;;;0.10;99.90;;;;;;4878010;29;20573;-81
2021/03/20 03:27:25;;;;;;;13.93;9.70;;;0.30;99.90;;;;;;4878959;29;20978;-80
2021/03/20 03:29:55;;;;;;;10.40;6.47;;;0.40;99.90;;;;;;4878746;29;20515;-81
2021/03/20 03:32:27;;;;;;;11.43;8.38;;;0.40;99.90;;;;;;4878722;29;20203;-81
2021/03/20 03:35:13;;;;;;;13.63;8.68;;;0.50;99.90;;;;;;4878899;29;20199;-81
2021/03/20 03:37:46;;;;;;;14.77;9.27;;;0.50;99.90;;;;;;4879375;29;20686;-81
2021/03/20 03:40:17;;;;;;;9.77;6.32;;;0.60;99.90;;;;;;4878774;29;20571;-81
2021/03/20 03:42:48;;;;;;;11.27;7.93;;;0.60;99.90;;;;;;5462578;23;20228;-81
2021/03/20 03:45:16;;;;;;;17.67;9.20;;;0.60;99.90;;;;;;4880441;29;20482;-81
2021/03/20 03:47:47;;;;;;;9.73;6.45;;;0.50;99.90;;;;;;4882651;29;20475;-81
2021/03/20 03:50:26;;;;;;;15.52;10.15;;;0.60;99.90;;;;;;4882389;29;20209;-81
2021/03/20 03:52:59;;;;;;;14.30;9.95;;;0.50;99.90;;;;;;4882182;29;20582;-81
2021/03/20 03:55:28;;;;;;;13.35;9.60;;;0.40;99.90;;;;;;4881218;29;20206;-81
2021/03/20 03:58:22;;;;;;;16.33;11.00;;;0.50;99.90;;;;;;4882205;29;20252;-81
2021/03/20 04:01:02;;;;;;;15.85;11.32;;;0.50;99.90;;;;;;4882211;29;20864;-81
2021/03/20 04:03:57;;;;;;;16.85;10.70;;;0.40;99.90;;;;;;4882085;29;20218;-82
2021/03/20 04:06:46;;;;;;;11.52;8.30;;;0.20;99.90;;;;;;4873766;29;20202;-82
2021/03/20 04:09:28;;;;;;;11.50;9.00;;;0.10;99.90;;;;;;4882041;29;20235;-82
2021/03/20 04:12:07;;;;;;;9.55;6.65;;;0.10;99.90;;;;;;4881220;29;20343;-82
2021/03/20 04:14:42;;;;;;;9.50;5.93;;;0.20;99.90;;;;;;4881859;29;20217;-82
2021/03/20 04:17:14;;;;;;;12.65;5.93;;;0.30;99.90;;;;;;4881929;29;20241;-82
2021/03/20 04:20:12;;;;;;;13.50;6.78;;;0.40;99.90;;;;;;4881983;29;20195;-82
2021/03/20 04:22:53;;;;;;;12.52;7.45;;;0.30;99.90;;;;;;4877571;29;20665;-82
2021/03/20 04:25:31;;;;;;;11.05;7.03;;;0.30;99.90;;;;;;4892643;29;20659;-82
2021/03/20 04:28:18;;;;;;;;;;;;;;;;;;;;;
2021/03/20 04:30:48;;;;;;;10.68;8.55;;;-0.20;99.90;;;;;;4900031;29;20262;-82
2021/03/20 04:33:24;;;;;;;12.15;8.07;;;-0.20;99.90;;;;;;4900535;29;20198;-82
2021/03/20 04:36:00;;;;;;;14.00;6.75;;;-0.30;99.90;;;;;;4900216;29;20198;-82
2021/03/20 04:38:39;;;;;;;10.48;6.35;;;-0.20;99.90;;;;;;4900340;29;20262;-82
2021/03/20 04:41:08;;;;;;;10.73;6.53;;;-0.20;99.90;;;;;;4898793;29;20294;-82
2021/03/20 04:43:36;;;;;;;14.90;7.35;;;-0.30;99.90;;;;;;4899961;29;20640;-82
2021/03/20 04:46:05;;;;;;;15.18;8.05;;;-0.40;99.90;;;;;;4900211;29;20225;-82
2021/03/20 04:48:34;;;;;;;12.20;7.97;;;-0.50;99.90;;;;;;4900005;29;20301;-82
2021/03/20 04:51:10;;;;;;;16.95;10.13;;;-0.70;99.90;;;;;;4899680;29;20226;-82
2021/03/20 04:53:40;;;;;;;12.80;8.40;;;-0.70;99.90;;;;;;4899515;29;20254;-82
2021/03/20 04:56:13;;;;;;;11.30;8.00;;;-0.70;99.90;;;;;;4898774;29;20203;-82
2021/03/20 04:58:50;;;;;;;14.70;8.63;;;-0.70;99.90;;;;;;4899707;29;20202;-82
2021/03/20 05:01:25;;;;;;;12.93;10.13;;;-0.80;99.90;;;;;;4899750;29;20229;-82
2021/03/20 05:04:07;;;;;;;13.55;12.10;;;-1.00;99.90;;;;;;4899552;29;20202;-82
2021/03/20 05:06:35;;;;;;;16.25;12.20;;;-1.20;99.90;;;;;;4899643;29;20194;-82
2021/03/20 05:09:19;;;;;;;23.10;21.38;;;-1.50;99.90;;;;;;4899675;29;20263;-82
2021/03/20 05:11:55;;;;;;;31.45;29.60;;;-1.60;99.90;;;;;;4898258;29;20194;-82
2021/03/20 05:14:42;;;;;;;41.88;39.40;;;-1.90;99.90;;;;;;4899353;29;20198;-82
2021/03/20 05:17:21;;;;;;;32.28;30.02;;;-1.80;99.90;;;;;;4899462;29;20293;-82
2021/03/20 05:19:57;;;;;;;47.88;45.28;;;-1.90;99.90;;;;;;4899467;29;20202;-81
2021/03/20 05:22:50;;;;;;;63.45;60.20;;;-2.00;99.90;;;;;;4899204;29;20206;-81
2021/03/20 05:25:36;;;;;;;;;;;;;;;;;;;;;
2021/03/20 05:28:06;;;;;;;82.50;78.35;;;-2.00;99.90;;;;;;4894101;29;20202;-81
2021/03/20 05:30:43;;;;;;;82.75;78.82;;;-2.20;99.90;;;;;;4899243;29;20214;-81
2021/03/20 05:33:13;;;;;;;83.35;78.95;;;-2.10;99.90;;;;;;4899235;29;20198;-81
2021/03/20 05:35:39;;;;;;;98.07;93.32;;;-2.30;99.90;;;;;;4899213;29;20619;-82
2021/03/20 05:38:07;;;;;;;89.07;84.53;;;-2.40;99.90;;;;;;4899104;29;20210;-82
2021/03/20 05:40:37;;;;;;;92.03;87.38;;;-2.40;99.90;;;;;;4897782;29;20781;-82
2021/03/20 05:43:30;;;;;;;82.85;79.10;;;-2.30;99.90;;;;;;4898719;29;21228;-81
2021/03/20 05:46:21;;;;;;;49.75;46.85;;;-2.20;99.90;;;;;;4898917;29;20203;-81
2021/03/20 05:49:02;;;;;;;35.70;33.65;;;-2.10;99.90;;;;;;4898884;29;20281;-82
2021/03/20 05:51:51;;;;;;;56.92;53.83;;;-1.80;99.90;;;;;;4898775;29;20198;-82
2021/03/20 05:54:47;;;;;;;20.55;19.05;;;-1.90;99.90;;;;;;4898863;29;20202;-81
2021/03/20 05:57:20;;;;;;;22.40;20.77;;;-1.60;99.90;;;;;;4898791;29;20243;-82
2021/03/20 05:59:54;;;;;;;21.48;19.60;;;-1.70;99.90;;;;;;4898694;29;20289;-82
2021/03/20 06:02:48;;;;;;;25.95;23.35;;;-1.90;99.90;;;;;;4898548;29;20654;-82
2021/03/20 06:05:30;;;;;;;25.17;23.05;;;-1.90;99.90;;;;;;4898738;29;20202;-82
2021/03/20 06:08:34;;;;;;;32.92;30.92;;;-2.10;99.90;;;;;;4898724;29;20206;-81
2021/03/20 06:11:06;;;;;;;47.33;44.72;;;-2.20;99.90;;;;;;4897292;29;20194;-82
2021/03/20 06:14:16;;;;;;;62.25;59.10;;;-2.30;99.90;;;;;;4898493;29;20214;-81
2021/03/20 06:17:07;;;;;;;74.32;70.32;;;-2.10;99.90;;;;;;4898406;29;20199;-82
2021/03/20 06:19:55;;;;;;;83.10;79.25;;;-1.90;99.90;;;;;;4898227;29;20198;-82
2021/03/20 06:22:50;;;;;;;92.13;87.82;;;-1.80;99.90;;;;;;4898106;29;20222;-81
2021/03/20 06:25:39;;;;;;;92.38;87.90;;;-1.50;99.90;;;;;;4896979;29;20245;-82
2021/03/20 06:28:10;;;;;;;94.93;90.50;;;-1.30;99.90;;;;;;4898238;29;20213;-82
2021/03/20 06:30:52;;;;;;;87.25;83.30;;;-1.10;99.90;;;;;;4898176;29;20207;-82
2021/03/20 06:33:52;;;;;;;;;;;;;;;;;;;;;
2021/03/20 06:37:01;;;;;;;49.55;46.88;;;-0.90;99.90;;;;;;4897803;29;20190;-82
2021/03/20 06:39:39;;;;;;;32.90;30.80;;;-0.90;99.90;;;;;;4894017;29;20571;-81
2021/03/20 06:42:15;;;;;;;31.20;29.00;;;-0.80;99.90;;;;;;4897315;29;20226;-80
2021/03/20 06:44:53;;;;;;;36.53;34.38;;;-0.80;99.90;;;;;;4897597;29;20706;-82
2021/03/20 06:47:27;;;;;;;44.55;42.00;;;-0.90;99.90;;;;;;4898255;29;20202;-81
2021/03/20 06:49:58;;;;;;;45.83;43.13;;;-0.90;99.90;;;;;;4898928;29;20206;-82
2021/03/20 06:52:28;;;;;;;47.22;44.72;;;-0.90;99.90;;;;;;4897486;29;20206;-81
2021/03/20 06:57:48;;;;;;;43.70;41.38;;;-0.80;99.90;;;;;;4927401;23;20237;-82
2021/03/20 07:03:56;;;;;;;33.67;31.35;;;-0.70;99.90;;;;;;4897784;29;20202;-83
2021/03/20 07:06:32;;;;;;;28.10;26.08;;;-0.60;99.90;;;;;;4897779;29;20205;-82
2021/03/20 07:09:26;;;;;;;;;;;;;;;;;;;;;
2021/03/20 07:12:30;;;;;;;12.27;9.48;;;-0.30;99.90;;;;;;4848411;29;20282;-82
2021/03/20 07:15:32;;;;;;;10.43;8.13;;;-0.10;99.90;;;;;;4898498;29;20198;-82
2021/03/20 07:18:32;;;;;;;9.45;5.40;;;-0.10;99.90;;;;;;4901617;29;20202;-82
2021/03/20 07:21:07;;;;;;;10.80;4.55;;;0.10;99.90;;;;;;4901427;29;20585;-82
2021/03/20 07:23:33;;;;;;;10.98;6.68;;;0.10;96.10;;;;;;4862319;29;20297;-82
2021/03/20 07:26:09;;;;;;;11.98;6.25;;;0.30;95.50;;;;;;4897885;29;20210;-82
2021/03/20 07:28:38;;;;;;;9.30;5.33;;;0.60;96.30;;;;;;4899875;29;20231;-82
2021/03/20 07:31:06;;;;;;;13.20;6.30;;;0.70;94.50;;;;;;4899976;29;20954;-82
2021/03/20 07:33:37;;;;;;;10.43;5.37;;;0.80;90.10;;;;;;4900060;29;20285;-82
2021/03/20 07:36:33;;;;;;;12.43;6.13;;;0.90;78.60;;;;;;4899365;29;20466;-82
2021/03/20 07:39:26;;;;;;;10.07;4.97;;;1.00;66.40;;;;;;4860958;29;20453;-82
2021/03/20 07:41:56;;;;;;;17.10;6.30;;;1.30;70.30;;;;;;4915216;29;20485;-82
2021/03/20 07:44:23;;;;;;;12.20;4.83;;;1.40;58.90;;;;;;4918384;29;20454;-82
2021/03/20 07:46:50;;;;;;;13.03;5.37;;;1.50;58.10;;;;;;4918623;29;20497;-82
2021/03/20 07:49:24;;;;;;;12.47;5.83;;;1.70;52.20;;;;;;4918338;29;20465;-82
2021/03/20 07:51:54;;;;;;;10.13;4.80;;;1.80;53.00;;;;;;4918598;29;20980;-82
2021/03/20 07:54:27;;;;;;;11.30;5.03;;;1.90;45.90;;;;;;4917952;29;20516;-82
2021/03/20 07:56:54;;;;;;;10.90;4.90;;;2.00;44.70;;;;;;4918168;29;20494;-82
2021/03/20 07:59:28;;;;;;;14.13;5.47;;;1.90;44.30;;;;;;4919947;29;20551;-82
2021/03/20 08:01:59;;;;;;;9.07;4.33;;;1.80;43.80;;;;;;4919497;29;20496;-82
2021/03/20 08:04:56;;;;;;;10.60;4.30;;;1.70;43.00;;;;;;4919590;29;20469;-82
2021/03/20 08:07:39;;;;;;;10.23;5.63;;;1.60;43.50;;;;;;4919536;29;20957;-82
2021/03/20 08:10:26;;;;;;;11.20;5.60;;;1.70;46.40;;;;;;4918289;29;20465;-82
2021/03/20 08:13:02;;;;;;;10.83;5.37;;;1.60;50.50;;;;;;4919502;29;20464;-82
2021/03/20 08:15:33;;;;;;;11.20;5.63;;;1.70;49.20;;;;;;4919793;29;20468;-82
2021/03/20 08:18:07;;;;;;;9.68;4.18;;;1.80;52.70;;;;;;4919730;29;20461;-82
2021/03/20 08:20:34;;;;;;;9.40;4.60;;;1.90;52.90;;;;;;4919301;29;20221;-82
2021/03/20 08:23:27;;;;;;;11.70;4.70;;;2.00;47.60;;;;;;4919338;29;20496;-82
2021/03/20 08:26:02;;;;;;;11.30;4.47;;;2.10;38.90;;;;;;4917960;29;21036;-82
2021/03/20 08:28:43;;;;;;;7.23;3.50;;;2.20;41.20;;;;;;4919420;29;20829;-82
2021/03/20 08:31:23;;;;;;;9.20;4.60;;;2.40;38.30;;;;;;4919191;29;20477;-83
2021/03/20 08:34:14;;;;;;;9.80;4.77;;;2.60;36.10;;;;;;4919321;29;20504;-82
2021/03/20 08:37:09;;;;;;;10.80;5.33;;;2.80;33.60;;;;;;4919074;29;20454;-83
2021/03/20 08:39:52;;;;;;;10.90;5.33;;;2.90;31.60;;;;;;4918386;29;20458;-82
2021/03/20 08:42:53;;;;;;;11.13;4.50;;;3.30;30.20;;;;;;4919052;29;20488;-83
2021/03/20 08:45:36;;;;;;;;;;;;;;;;;;;;;
2021/03/20 08:48:41;;;;;;;9.47;3.60;;;3.70;21.40;;;;;;4919065;29;20468;-83
2021/03/20 08:51:29;;;;;;;9.13;3.70;;;3.90;16.60;;;;;;4889799;29;20833;-83
2021/03/20 08:54:25;;;;;;;14.73;5.07;;;4.00;16.60;;;;;;4919114;29;20489;-83
2021/03/20 08:57:17;;;;;;;15.23;5.43;;;4.20;15.20;;;;;;4917554;29;20536;-83
2021/03/20 08:59:52;;;;;;;11.37;3.53;;;4.50;13.60;;;;;;4918866;29;20465;-83
2021/03/20 09:03:03;;;;;;;10.13;4.80;;;5.00;13.00;;;;;;4918651;29;20543;-83
2021/03/20 09:05:37;;;;;;;11.57;4.13;;;5.20;12.80;;;;;;4823335;29;20461;-83
2021/03/20 09:08:18;;;;;;;17.53;5.23;;;5.30;9.00;;;;;;4892192;29;20524;-83
2021/03/20 09:11:11;;;;;;;;;;;;;;;;;;;;;
2021/03/20 09:13:48;;;;;;;13.13;4.77;;;5.40;5.10;;;;;;4918162;29;20453;-84
2021/03/20 09:16:28;;;;;;;11.13;4.00;;;5.50;5.10;;;;;;4918539;29;20886;-83
2021/03/20 09:19:25;;;;;;;16.03;5.27;;;5.40;6.00;;;;;;4884947;29;20560;-83
2021/03/20 09:22:07;;;;;;;13.57;5.73;;;5.70;5.00;;;;;;4918145;29;20494;-83
2021/03/20 09:24:36;;;;;;;16.43;4.87;;;6.30;2.20;;;;;;4918011;29;20465;-83
2021/03/20 09:27:10;;;;;;;13.80;3.80;;;6.20;1.70;;;;;;4917841;29;20486;-83
2021/03/20 09:30:12;;;;;;;14.60;4.97;;;6.10;1.00;;;;;;4918252;29;20794;-83
2021/03/20 09:32:48;;;;;;;12.33;4.60;;;6.30;1.00;;;;;;4918377;29;20466;-83
2021/03/20 09:35:24;;;;;;;12.20;4.33;;;6.50;1.00;;;;;;4918106;29;20517;-83
2021/03/20 09:37:53;;;;;;;17.40;4.90;;;6.40;1.00;;;;;;4917595;29;20469;-83
2021/03/20 09:40:56;;;;;;;12.03;3.83;;;6.90;1.00;;;;;;4916665;29;20518;-83
2021/03/20 09:44:07;;;;;;;15.00;4.70;;;7.30;1.00;;;;;;4917770;29;20456;-82
2021/03/20 09:47:07;;;;;;;;;;;;;;;;;;;;;
2021/03/20 09:50:11;;;;;;;14.30;4.20;;;7.40;1.00;;;;;;4915411;29;20486;-81
2021/03/20 09:52:59;;;;;;;14.70;5.07;;;7.80;1.00;;;;;;4888093;29;20457;-82
2021/03/20 09:55:57;;;;;;;14.60;4.20;;;8.10;1.00;;;;;;4916387;29;20475;-81
2021/03/20 09:58:51;;;;;;;15.67;4.87;;;8.40;1.00;;;;;;4917723;29;21008;-82
2021/03/20 10:01:20;;;;;;;14.90;4.77;;;7.90;1.00;;;;;;4917619;29;20497;-82
2021/03/20 10:04:25;;;;;;;16.20;3.27;;;8.30;1.00;;;;;;4917430;29;20826;-82
2021/03/20 10:07:16;;;;;;;14.53;4.10;;;7.90;1.00;;;;;;4917308;29;20489;-81
2021/03/20 10:09:58;;;;;;;13.00;3.20;;;7.70;1.00;;;;;;4913218;29;20464;-81
2021/03/20 10:12:30;;;;;;;15.63;4.23;;;7.70;1.00;;;;;;4915676;29;20501;-82
2021/03/20 10:15:36;;;;;;;15.37;3.33;;;7.80;1.00;;;;;;4914571;29;20964;-81
2021/03/20 10:18:21;;;;;;;13.60;3.60;;;7.50;1.00;;;;;;4863922;29;20804;-82
2021/03/20 10:21:25;;;;;;;13.17;3.90;;;7.30;1.00;;;;;;4915991;29;20531;-82
2021/03/20 10:24:26;;;;;;;12.57;3.00;;;7.50;1.00;;;;;;4914145;29;20587;-81
2021/03/20 10:27:12;;;;;;;12.03;2.90;;;7.40;1.00;;;;;;4915792;29;20464;-82
2021/03/20 10:30:21;;;;;;;12.60;2.97;;;7.80;1.00;;;;;;4917141;29;20968;-82
2021/03/20 10:36:33;;;;;;;10.93;2.40;;;7.60;1.00;;;;;;4915475;29;21041;-82
2021/03/20 10:39:15;;;;;;;13.90;3.57;;;7.60;1.00;;;;;;4917950;29;20483;-83
2021/03/20 10:41:49;;;;;;;11.57;3.17;;;7.70;1.00;;;;;;4915408;29;20860;-82
2021/03/20 10:44:22;;;;;;;12.30;3.73;;;8.20;1.00;;;;;;4917057;29;20592;-82
2021/03/20 10:47:03;;;;;;;12.13;3.03;;;8.10;1.00;;;;;;4916886;29;20486;-82
2021/03/20 10:49:38;;;;;;;14.60;3.70;;;8.00;1.00;;;;;;4916360;29;20463;-81
2021/03/20 10:55:39;;;;;;;12.50;3.00;;;8.40;1.00;;;;;;4908765;29;20484;-82
2021/03/20 11:01:54;;;;;;;11.80;2.73;;;8.30;1.00;;;;;;4837485;29;21022;-82
2021/03/20 11:05:04;;;;;;;13.68;3.95;;;8.60;1.00;;;;;;4856010;29;20465;-81
2021/03/20 11:07:53;;;;;;;15.60;3.43;;;9.70;1.00;;;;;;4863661;29;20203;-81
2021/03/20 11:11:06;;;;;;;;;;;;;;;;;;;;;
2021/03/20 12:01:17;;;;;;;;;;;;;;;;;;;;;
2021/03/20 12:17:49;;;;;;;17.53;2.63;;;9.80;1.00;;;;;;4683131;30;20464;-82
2021/03/20 12:21:04;;;;;;;;;;;;;;;;;;;;;
2021/03/20 12:24:32;;;;;;;15.63;2.50;;;10.20;1.00;;;;;;4722078;30;21122;-83
2021/03/20 12:28:00;;;;;;;;;;;;;;;;;;;;;
2021/03/20 12:34:43;;;;;;;17.30;2.77;;;10.30;1.00;;;;;;4669244;30;20502;-82
2021/03/20 12:37:35;;;;;;;;;;;;;;;;;;;;;
2021/03/20 12:40:33;;;;;;;19.03;3.50;;;11.10;1.00;;;;;;4712502;30;20465;-82
2021/03/20 12:43:27;;;;;;;14.13;2.10;;;12.70;1.00;;;;;;4748514;29;21122;-83
2021/03/20 12:46:58;;;;;;;;;;;;;;;;;;;;;
2021/03/20 12:49:55;;;;;;;16.90;2.80;;;11.80;1.00;;;;;;4756230;29;20544;-83
2021/03/20 12:52:30;;;;;;;14.63;2.77;;;11.40;1.00;;;;;;4820443;29;20508;-81
2021/03/20 12:55:00;;;;;;;15.77;3.00;;;12.20;1.00;;;;;;4817422;29;20522;-84
2021/03/20 12:57:28;;;;;;;15.27;3.07;;;12.50;1.00;;;;;;4839241;29;20517;-81
2021/03/20 12:59:56;;;;;;;15.13;2.67;;;12.10;1.00;;;;;;4918281;29;21041;-79
2021/03/20 13:03:04;;;;;;;;;;;;;;;;;;;;;
2021/03/20 13:09:40;;;;;;;14.10;2.70;;;11.60;1.00;;;;;;4740384;30;20465;-83
2021/03/20 13:12:50;;;;;;;14.77;2.93;;;11.40;1.00;;;;;;4700992;30;20500;-83
2021/03/20 13:19:12;;;;;;;;;;;;;;;;;;;;;
2021/03/20 13:34:34;;;;;;;14.93;2.90;;;12.80;1.00;;;;;;4762859;29;20455;-85
2021/03/20 13:45:27;;;;;;;22.63;4.40;;;11.90;1.00;;;;;;4627840;30;20569;-82
2021/03/20 13:48:20;;;;;;;15.27;3.30;;;12.00;1.00;;;;;;4736309;30;20203;-82
2021/03/20 13:50:48;;;;;;;14.90;2.73;;;12.90;1.00;;;;;;4843170;29;20487;-79
2021/03/20 13:53:30;;;;;;;16.50;3.70;;;12.60;1.00;;;;;;4858975;29;20497;-82
2021/03/20 13:56:20;;;;;;;;;;;;;;;;;;;;;
2021/03/20 13:58:55;;;;;;;14.67;2.70;;;12.40;1.00;;;;;;4831619;29;20454;-82
2021/03/20 14:01:33;;;;;;;;;;;;;;;;;;;;;
2021/03/20 14:07:11;;;;;;;16.23;3.07;;;11.60;1.00;;;;;;4910956;29;20467;-82
2021/03/20 14:09:42;;;;;;;15.57;3.47;;;11.10;1.00;;;;;;4912731;29;20784;-82
2021/03/20 14:12:17;;;;;;;14.57;3.07;;;10.70;1.00;;;;;;4917299;29;20588;-83
2021/03/20 14:14:47;;;;;;;13.50;2.33;;;10.70;1.00;;;;;;4917019;29;21094;-82
2021/03/20 14:17:14;;;;;;;14.80;2.90;;;10.70;1.00;;;;;;4917035;29;20456;-81
2021/03/20 14:19:42;;;;;;;14.40;3.10;;;10.40;1.00;;;;;;4917096;29;20554;-81
2021/03/20 14:22:09;;;;;;;15.30;2.73;;;10.00;1.00;;;;;;4917032;29;20462;-81
2021/03/20 14:24:35;;;;;;;18.77;3.37;;;10.00;1.00;;;;;;4916952;29;20457;-81
2021/03/20 14:27:20;;;;;;;13.80;2.57;;;9.90;1.00;;;;;;4916874;29;20462;-82
2021/03/20 14:29:53;;;;;;;12.80;2.50;;;10.10;1.00;;;;;;4917318;29;20515;-82
2021/03/20 14:32:30;;;;;;;15.40;3.37;;;9.80;1.00;;;;;;4916882;29;20850;-81
2021/03/20 14:39:03;;;;;;;;;;;;;;;;;;;;;
2021/03/20 14:45:08;;;;;;;;;;;;;;;;;;;;;
2021/03/20 14:48:06;;;;;;;14.43;2.97;;;12.20;1.00;;;;;;4782619;29;20454;-83
2021/03/20 14:50:49;;;;;;;14.23;2.80;;;12.30;1.00;;;;;;4816984;29;21026;-83
2021/03/20 15:10:47;;;;;;;13.60;2.43;;;11.90;1.00;;;;;;5004892;28;20544;-82
2021/03/20 15:13:24;;;;;;;13.77;2.50;;;12.30;1.00;;;;;;4858628;29;20514;-78
2021/03/20 15:16:03;;;;;;;15.63;2.43;;;12.70;1.00;;;;;;4904930;29;20458;-84
2021/03/20 15:18:34;;;;;;;13.20;2.30;;;12.90;1.00;;;;;;4903910;29;20477;-81
2021/03/20 15:24:43;;;;;;;15.03;2.73;;;12.30;1.00;;;;;;4943980;28;20476;-81
2021/03/20 15:27:22;;;;;;;13.13;2.23;;;11.30;1.00;;;;;;4975201;28;20464;-82
2021/03/20 15:30:30;;;;;;;15.43;2.50;;;11.30;1.00;;;;;;5030865;28;20512;-81
2021/03/20 15:32:57;;;;;;;14.00;2.63;;;10.90;1.00;;;;;;5064916;28;20447;-81
2021/03/20 15:35:52;;;;;;;13.27;2.57;;;10.30;1.00;;;;;;5067557;28;20592;-81
2021/03/20 15:38:19;;;;;;;13.20;3.03;;;10.10;1.00;;;;;;5066577;28;20441;-83
2021/03/20 15:40:53;;;;;;;11.83;2.77;;;10.20;1.00;;;;;;5066004;28;20451;-83
2021/03/20 15:43:24;;;;;;;12.57;2.60;;;10.20;1.00;;;;;;5067119;28;20457;-83
2021/03/20 15:45:56;;;;;;;12.83;3.23;;;9.50;1.00;;;;;;5067215;28;20568;-83
2021/03/20 15:48:29;;;;;;;12.70;3.50;;;9.20;1.00;;;;;;5074125;28;20883;-83
2021/03/20 15:51:01;;;;;;;12.30;3.30;;;8.90;1.00;;;;;;5070005;28;20454;-83
2021/03/20 15:53:28;;;;;;;11.30;3.03;;;8.80;1.00;;;;;;5068362;28;20452;-83
2021/03/20 15:55:54;;;;;;;13.47;3.03;;;9.00;1.00;;;;;;5062693;28;20446;-83
2021/03/20 15:58:25;;;;;;;15.93;3.57;;;8.90;1.00;;;;;;5063559;28;20453;-83
2021/03/20 16:00:53;;;;;;;11.83;3.03;;;8.90;1.00;;;;;;5066251;28;20488;-83
2021/03/20 16:03:19;;;;;;;15.80;3.57;;;9.00;1.00;;;;;;5067505;28;21224;-83
2021/03/20 16:05:53;;;;;;;11.93;2.80;;;8.80;1.00;;;;;;5066436;28;20591;-83
2021/03/20 16:08:22;;;;;;;15.63;4.80;;;8.60;1.00;;;;;;5068066;28;20456;-83
2021/03/20 16:10:55;;;;;;;12.10;3.53;;;8.40;1.00;;;;;;5064803;28;20498;-83
2021/03/20 16:13:23;;;;;;;11.60;3.10;;;8.30;1.00;;;;;;5066394;28;20486;-83
2021/03/20 16:15:50;;;;;;;11.73;3.43;;;8.20;1.00;;;;;;5065122;28;20478;-83
2021/03/20 16:18:16;;;;;;;11.70;3.50;;;8.10;1.00;;;;;;5053171;28;20462;-83
2021/03/20 16:20:46;;;;;;;11.17;3.33;;;8.20;1.00;;;;;;5053675;28;20495;-83
2021/03/20 16:23:15;;;;;;;11.63;3.30;;;8.10;1.00;;;;;;5053503;28;20495;-83
2021/03/20 16:25:41;;;;;;;11.93;3.60;;;8.10;1.00;;;;;;5051816;28;20484;-83
2021/03/20 16:28:15;;;;;;;12.80;2.70;;;8.20;1.00;;;;;;5052859;28;20494;-83
2021/03/20 16:30:45;;;;;;;10.03;3.03;;;8.00;1.00;;;;;;5053059;28;20464;-82
2021/03/20 16:33:16;;;;;;;12.70;3.27;;;7.80;1.00;;;;;;5053201;28;20491;-83
2021/03/20 16:35:44;;;;;;;11.27;3.90;;;7.90;1.00;;;;;;5053258;28;21100;-81
2021/03/20 16:38:15;;;;;;;11.00;3.90;;;7.90;1.00;;;;;;5054326;28;20441;-81
2021/03/20 16:40:46;;;;;;;10.70;3.50;;;7.90;1.00;;;;;;5051235;28;20509;-82
2021/03/20 16:43:12;;;;;;;14.23;4.00;;;7.80;1.00;;;;;;5052953;28;20547;-83
2021/03/20 16:45:43;;;;;;;9.87;3.43;;;7.70;1.00;;;;;;5053514;28;20498;-83